Spelter City, Oklahoma
Current Conditions -  °F | °C
As of 12:15 AM on Sunday 21 Dec 2014 (Local Time) from KOKM Reporting Station
Haze Haze  
Wind Chill: 42°   Ceiling: 1000
Heat Index: 42°   Visibility: 4mi
Dew Point: 40°   Wind: 3mph
Humidity: 95%   Direction: 200°SSW
Pressure: 30.17"   Gusts: NA
Location:  35.4729°N, 95.9709°W
Report Text: KOKM 210615Z AUTO 20003KT 4SM BR BKN010 OVC019 06/05 A3017 RMK AO2 T00550047
Loading
Personal Weather Stations






























Interactive Weather Map New forecast layout! Learn more

10-Day Weather Forecast

Advertisements
Track Severe Weather on mobile